Norwegian Getaway — C6ZJ4 — position and weather

sailwx.info

Track history (hours):
 
Tides and Currents Weather Stations Pressure Air Temp Water Temp Dewpoint Dewpoint Depression Visibility Wind Speed Wind Dir Waves Ship Positions

Norwegian Getaway

Last reported at 2017-Apr-23 23:03 UTC. Time now 2017-Apr-24 03:26 UTC.
Position N 25°18' W 079°55'.

Length 326 m; draft 8.9 m.

Type: Passenger vessel. MMSI: 311050900.

Date/timePositionNaut miles runAvg speedWind from/ knotsBaromVisibWave heightAir tempDewpointWater temp
2017-Apr-23 23:03N 25°18' W 079°55'215.7
2017-Apr-23 22:57N 25°19' W 079°55'915.7
2017-Apr-23 22:21N 25°29' W 079°56'915.5
2017-Apr-23 21:46N 25°38' W 079°58'416.0
2017-Apr-23 21:30N 25°41' W 080°00'612.2
2017-Apr-23 21:00N 25°46' W 080°05'4 9.0
2017-Apr-23 20:30N 25°46' W 080°10'0 0.6
2017-Apr-23 19:58N 25°46' W 080°10'0 0.0
2017-Apr-23 19:28N 25°46' W 080°10'0 0.0
2017-Apr-23 18:58N 25°46' W 080°10'0 0.0
2017-Apr-23 18:28N 25°46' W 080°10'0 0.0
2017-Apr-23 17:58N 25°46' W 080°10'0 0.0
2017-Apr-23 17:28N 25°46' W 080°10'0 0.0
2017-Apr-23 16:58N 25°46' W 080°10'0 0.0
2017-Apr-23 16:27N 25°46' W 080°10'0 0.0
2017-Apr-23 16:00N 25°46' W 080°10'0 0.0
2017-Apr-23 15:30N 25°46' W 080°10'0 0.0
2017-Apr-23 15:00N 25°46' W 080°10'0 0.0
2017-Apr-23 14:00N 25°46' W 080°10'0 0.0
2017-Apr-23 13:27N 25°46' W 080°10'0 0.0
2017-Apr-23 13:00N 25°46' W 080°10'0 0.0
2017-Apr-23 12:27N 25°46' W 080°10'0 0.0
2017-Apr-23 12:00N 25°46' W 080°10'0 0.0
2017-Apr-23 11:30N 25°46' W 080°10'0 0.0
2017-Apr-23 10:57N 25°46' W 080°10'0 0.0
2017-Apr-23 10:30N 25°46' W 080°10'1 2.3
2017-Apr-23 10:00N 25°47' W 080°11'3 5.9
2017-Apr-23 09:30N 25°46' W 080°08'510.5
2017-Apr-23 09:00N 25°46' W 080°02'510.6
2017-Apr-23 08:31N 25°43' W 079°57'815.5
2017-Apr-23 08:01N 25°39' W 079°50'815.5
2017-Apr-23 07:31N 25°34' W 079°43'815.0
2017-Apr-23 07:01N 25°27' W 079°40'31715.1
2017-Apr-22 10:00N 22°42' W 084°36'18516.3 090 / 141004.010.8 24.522.227.5
2017-Apr-21 22:40N 20°33' W 086°58'210.4
2017-Apr-21 22:30N 20°31' W 086°58'0 0.5
2017-Apr-21 21:58N 20°31' W 086°57'0 0.0
2017-Apr-21 21:28N 20°31' W 086°57'0 0.0
2017-Apr-21 20:58N 20°31' W 086°57'0 0.0
2017-Apr-21 20:28N 20°31' W 086°57'0 0.0
2017-Apr-21 19:58N 20°31' W 086°57'0 0.0
2017-Apr-21 19:28N 20°31' W 086°57'0 0.0
2017-Apr-21 18:58N 20°31' W 086°57'0 0.0
2017-Apr-21 18:28N 20°31' W 086°57'0 0.0
2017-Apr-21 17:58N 20°31' W 086°57'0 0.0
2017-Apr-21 17:28N 20°31' W 086°57'0 0.0
2017-Apr-21 16:58N 20°31' W 086°57'0 0.0
2017-Apr-21 16:28N 20°31' W 086°57'0 0.0
2017-Apr-21 15:58N 20°31' W 086°57'0 0.0
2017-Apr-21 15:25N 20°31' W 086°57'0 0.0
2017-Apr-21 14:58N 20°31' W 086°57'0 0.0
2017-Apr-21 14:28N 20°31' W 086°57'0 0.0
2017-Apr-21 13:28N 20°31' W 086°57'0 0.0
2017-Apr-21 12:58N 20°31' W 086°57'0 0.1
2017-Apr-21 12:30N 20°31' W 086°57'2 3.0
2017-Apr-21 12:01N 20°30' W 086°59'4 7.4
2017-Apr-21 11:30N 20°28' W 087°02'5 9.3
2017-Apr-21 10:56N 20°23' W 087°04'  
2017-Apr-18 12:00N 17°12' W 086°18'42917.2 090 / 281007.010.8 22.318.528.3
2017-Apr-17 11:00N 23°24' W 082°30'19114.3 120 / 171012.010.8 23.922.227.6
2017-Apr-16 21:40N 25°34' W 079°56'315.4
2017-Apr-16 21:30N 25°36' W 079°58'815.7
2017-Apr-16 21:01N 25°42' W 080°03'5 9.6
2017-Apr-16 20:31N 25°45' W 080°07'3 5.3
2017-Apr-16 20:01N 25°46' W 080°10'0 0.0
2017-Apr-16 19:22N 25°46' W 080°10'0 0.0
2017-Apr-16 18:58N 25°46' W 080°10'0 0.0
2017-Apr-16 18:22N 25°46' W 080°10'0 0.0
2017-Apr-16 17:58N 25°46' W 080°10'0 0.0
2017-Apr-16 17:28N 25°46' W 080°10'0 0.0
2017-Apr-16 16:58N 25°46' W 080°10'0 0.0
2017-Apr-16 16:25N 25°46' W 080°10'0 0.0
2017-Apr-16 15:55N 25°46' W 080°10'0 0.0
2017-Apr-16 15:25N 25°46' W 080°10'0 0.0
2017-Apr-16 14:58N 25°46' W 080°10'0 0.0
2017-Apr-16 14:28N 25°46' W 080°10'0 0.0
2017-Apr-16 13:28N 25°46' W 080°10'0 0.0
2017-Apr-16 12:58N 25°46' W 080°10'0 0.0
2017-Apr-16 12:28N 25°46' W 080°10'0 0.0
2017-Apr-16 11:58N 25°46' W 080°10'0 0.0
2017-Apr-16 11:28N 25°46' W 080°10'0 0.0
2017-Apr-16 10:58N 25°46' W 080°10'0 0.2
2017-Apr-16 10:30N 25°47' W 080°10'1 1.2
2017-Apr-16 10:00N 25°47' W 080°11'4 7.6
2017-Apr-16 09:30N 25°45' W 080°07'5 9.4
2017-Apr-16 09:00N 25°46' W 080°01'5 9.7
2017-Apr-16 08:30N 25°43' W 079°57'713.3
2017-Apr-16 08:01N 25°37' W 079°56'714.5
2017-Apr-16 07:31N 25°29' W 079°56'815.1
2017-Apr-16 07:00N 25°22' W 079°57'14618.3
2017-Apr-15 23:00N 23°36' W 081°48'22718.9 080 / 271013.010.8 26.919.827.4
2017-Apr-15 11:00N 21°48' W 085°24'123 3.7 090 / 221011.010.8 24.420.728.2
2017-Apr-14 01:41N 20°27' W 087°02'211.8
2017-Apr-14 01:30N 20°28' W 087°01'4 8.3
2017-Apr-14 01:00N 20°31' W 086°58'0 0.4
2017-Apr-14 00:28N 20°31' W 086°57'0 0.0
2017-Apr-13 23:58N 20°31' W 086°57'0 0.0
2017-Apr-13 23:28N 20°31' W 086°57'  
Track history (hours):
 
Tides and Currents Weather Stations Pressure Air Temp Water Temp Dewpoint Dewpoint Depression Visibility Wind Speed Wind Dir Waves Ship Positions

Norwegian Getaway

Last reported at 2017-Apr-23 23:03 UTC. Time now 2017-Apr-24 03:26 UTC.
Position N 25°18' W 079°55'.

Length 326 m; draft 8.9 m.

Type: Passenger vessel. MMSI: 311050900.

Date/timePositionNaut miles runAvg speedWind from/ knotsBaromVisibWave heightAir tempDewpointWater temp
2017-Apr-23 23:03N 25°18' W 079°55'215.7
2017-Apr-23 22:57N 25°19' W 079°55'915.7
2017-Apr-23 22:21N 25°29' W 079°56'915.5
2017-Apr-23 21:46N 25°38' W 079°58'416.0
2017-Apr-23 21:30N 25°41' W 080°00'612.2
2017-Apr-23 21:00N 25°46' W 080°05'4 9.0
2017-Apr-23 20:30N 25°46' W 080°10'0 0.6
2017-Apr-23 19:58N 25°46' W 080°10'0 0.0
2017-Apr-23 19:28N 25°46' W 080°10'0 0.0
2017-Apr-23 18:58N 25°46' W 080°10'0 0.0
2017-Apr-23 18:28N 25°46' W 080°10'0 0.0
2017-Apr-23 17:58N 25°46' W 080°10'0 0.0
2017-Apr-23 17:28N 25°46' W 080°10'0 0.0
2017-Apr-23 16:58N 25°46' W 080°10'0 0.0
2017-Apr-23 16:27N 25°46' W 080°10'0 0.0
2017-Apr-23 16:00N 25°46' W 080°10'0 0.0
2017-Apr-23 15:30N 25°46' W 080°10'0 0.0
2017-Apr-23 15:00N 25°46' W 080°10'0 0.0
2017-Apr-23 14:00N 25°46' W 080°10'0 0.0
2017-Apr-23 13:27N 25°46' W 080°10'0 0.0
2017-Apr-23 13:00N 25°46' W 080°10'0 0.0
2017-Apr-23 12:27N 25°46' W 080°10'0 0.0
2017-Apr-23 12:00N 25°46' W 080°10'0 0.0
2017-Apr-23 11:30N 25°46' W 080°10'0 0.0
2017-Apr-23 10:57N 25°46' W 080°10'0 0.0
2017-Apr-23 10:30N 25°46' W 080°10'1 2.3
2017-Apr-23 10:00N 25°47' W 080°11'3 5.9
2017-Apr-23 09:30N 25°46' W 080°08'510.5
2017-Apr-23 09:00N 25°46' W 080°02'510.6
2017-Apr-23 08:31N 25°43' W 079°57'815.5
2017-Apr-23 08:01N 25°39' W 079°50'815.5
2017-Apr-23 07:31N 25°34' W 079°43'815.0
2017-Apr-23 07:01N 25°27' W 079°40'31715.1
2017-Apr-22 10:00N 22°42' W 084°36'18516.3 090 / 141004.010.8 24.522.227.5
2017-Apr-21 22:40N 20°33' W 086°58'210.4
2017-Apr-21 22:30N 20°31' W 086°58'0 0.5
2017-Apr-21 21:58N 20°31' W 086°57'0 0.0
2017-Apr-21 21:28N 20°31' W 086°57'0 0.0
2017-Apr-21 20:58N 20°31' W 086°57'0 0.0
2017-Apr-21 20:28N 20°31' W 086°57'0 0.0
2017-Apr-21 19:58N 20°31' W 086°57'0 0.0
2017-Apr-21 19:28N 20°31' W 086°57'0 0.0
2017-Apr-21 18:58N 20°31' W 086°57'0 0.0
2017-Apr-21 18:28N 20°31' W 086°57'0 0.0
2017-Apr-21 17:58N 20°31' W 086°57'0 0.0
2017-Apr-21 17:28N 20°31' W 086°57'0 0.0
2017-Apr-21 16:58N 20°31' W 086°57'0 0.0
2017-Apr-21 16:28N 20°31' W 086°57'0 0.0
2017-Apr-21 15:58N 20°31' W 086°57'0 0.0
2017-Apr-21 15:25N 20°31' W 086°57'0 0.0
2017-Apr-21 14:58N 20°31' W 086°57'0 0.0
2017-Apr-21 14:28N 20°31' W 086°57'0 0.0
2017-Apr-21 13:28N 20°31' W 086°57'0 0.0
2017-Apr-21 12:58N 20°31' W 086°57'0 0.1
2017-Apr-21 12:30N 20°31' W 086°57'2 3.0
2017-Apr-21 12:01N 20°30' W 086°59'4 7.4
2017-Apr-21 11:30N 20°28' W 087°02'5 9.3
2017-Apr-21 10:56N 20°23' W 087°04'  
2017-Apr-18 12:00N 17°12' W 086°18'42917.2 090 / 281007.010.8 22.318.528.3
2017-Apr-17 11:00N 23°24' W 082°30'19114.3 120 / 171012.010.8 23.922.227.6
2017-Apr-16 21:40N 25°34' W 079°56'315.4
2017-Apr-16 21:30N 25°36' W 079°58'815.7
2017-Apr-16 21:01N 25°42' W 080°03'5 9.6
2017-Apr-16 20:31N 25°45' W 080°07'3 5.3
2017-Apr-16 20:01N 25°46' W 080°10'0 0.0
2017-Apr-16 19:22N 25°46' W 080°10'0 0.0
2017-Apr-16 18:58N 25°46' W 080°10'0 0.0
2017-Apr-16 18:22N 25°46' W 080°10'0 0.0
2017-Apr-16 17:58N 25°46' W 080°10'0 0.0
2017-Apr-16 17:28N 25°46' W 080°10'0 0.0
2017-Apr-16 16:58N 25°46' W 080°10'0 0.0
2017-Apr-16 16:25N 25°46' W 080°10'0 0.0
2017-Apr-16 15:55N 25°46' W 080°10'0 0.0
2017-Apr-16 15:25N 25°46' W 080°10'0 0.0
2017-Apr-16 14:58N 25°46' W 080°10'0 0.0
2017-Apr-16 14:28N 25°46' W 080°10'0 0.0
2017-Apr-16 13:28N 25°46' W 080°10'0 0.0
2017-Apr-16 12:58N 25°46' W 080°10'0 0.0
2017-Apr-16 12:28N 25°46' W 080°10'0 0.0
2017-Apr-16 11:58N 25°46' W 080°10'0 0.0
2017-Apr-16 11:28N 25°46' W 080°10'0 0.0
2017-Apr-16 10:58N 25°46' W 080°10'0 0.2
2017-Apr-16 10:30N 25°47' W 080°10'1 1.2
2017-Apr-16 10:00N 25°47' W 080°11'4 7.6
2017-Apr-16 09:30N 25°45' W 080°07'5 9.4
2017-Apr-16 09:00N 25°46' W 080°01'5 9.7
2017-Apr-16 08:30N 25°43' W 079°57'713.3
2017-Apr-16 08:01N 25°37' W 079°56'714.5
2017-Apr-16 07:31N 25°29' W 079°56'815.1
2017-Apr-16 07:00N 25°22' W 079°57'14618.3
2017-Apr-15 23:00N 23°36' W 081°48'22718.9 080 / 271013.010.8 26.919.827.4
2017-Apr-15 11:00N 21°48' W 085°24'123 3.7 090 / 221011.010.8 24.420.728.2
2017-Apr-14 01:41N 20°27' W 087°02'211.8
2017-Apr-14 01:30N 20°28' W 087°01'4 8.3
2017-Apr-14 01:00N 20°31' W 086°58'0 0.4
2017-Apr-14 00:28N 20°31' W 086°57'0 0.0
2017-Apr-13 23:58N 20°31' W 086°57'0 0.0
2017-Apr-13 23:28N 20°31' W 086°57'  

Dump ship's entire track history